createdAt,value
2018-05-18T00:01:32.250Z,4.40
2018-05-18T00:03:59.867Z,4.50
2018-05-18T00:06:27.434Z,5.50
2018-05-18T00:08:54.991Z,5.20
2018-05-18T00:11:22.582Z,5.07
2018-05-18T00:13:50.145Z,5.33
2018-05-18T00:16:17.702Z,6.50
2018-05-18T00:18:45.293Z,6.63
2018-05-18T00:21:13.618Z,5.80
2018-05-18T00:23:41.168Z,5.30
2018-05-18T00:26:08.805Z,6.40
2018-05-18T00:28:36.341Z,6.70
2018-05-18T00:31:03.902Z,6.70
2018-05-18T00:33:31.506Z,7.62
2018-05-18T00:35:59.068Z,6.43
2018-05-18T00:38:26.616Z,5.67
2018-05-18T00:40:54.214Z,5.50
2018-05-18T00:43:21.772Z,5.67
2018-05-18T00:45:49.325Z,6.23
2018-05-18T00:48:16.932Z,6.43
2018-05-18T00:50:44.488Z,6.17
2018-05-18T00:53:12.041Z,6.27
2018-05-18T00:55:42.342Z,5.80
2018-05-18T00:58:09.891Z,5.90
2018-05-18T01:00:37.466Z,5.77
2018-05-18T01:03:05.054Z,6.57
2018-05-18T01:05:32.620Z,6.80
2018-05-18T01:08:00.177Z,7.87
2018-05-18T01:10:28.242Z,6.43
2018-05-18T01:12:55.798Z,8.13
2018-05-18T01:15:23.364Z,8.18
2018-05-18T01:17:50.949Z,6.87
2018-05-18T01:20:18.509Z,7.40
2018-05-18T01:22:46.078Z,6.70
2018-05-18T01:25:14.449Z,6.03
2018-05-18T01:27:42.042Z,6.60
2018-05-18T01:30:09.569Z,7.20
2018-05-18T01:32:37.504Z,7.03
2018-05-18T01:35:05.062Z,6.47
2018-05-18T01:37:32.628Z,6.87
2018-05-18T01:40:00.216Z,6.87
2018-05-18T01:42:27.778Z,6.37
2018-05-18T01:44:55.337Z,7.68
2018-05-18T01:47:22.933Z,8.95
2018-05-18T01:49:50.500Z,8.82
2018-05-18T01:52:18.058Z,6.87
2018-05-18T01:54:46.072Z,6.33
2018-05-18T01:57:13.643Z,6.23
2018-05-18T01:59:41.191Z,6.00
2018-05-18T02:02:08.838Z,7.20
2018-05-18T02:04:36.377Z,6.93
2018-05-18T02:07:03.963Z,7.93
2018-05-18T02:09:31.549Z,8.13
2018-05-18T02:11:59.115Z,7.03
2018-05-18T02:14:26.669Z,7.90
2018-05-18T02:16:54.296Z,9.10
2018-05-18T02:19:21.856Z,8.00
2018-05-18T02:21:49.414Z,7.40
2018-05-18T02:24:16.997Z,7.10
2018-05-18T02:26:44.567Z,6.93
2018-05-18T02:29:12.123Z,6.90
2018-05-18T02:31:39.744Z,6.80
2018-05-18T02:34:07.305Z,6.93
2018-05-18T02:36:35.617Z,6.70
2018-05-18T02:39:03.235Z,7.17
2018-05-18T02:41:30.788Z,6.50
2018-05-18T02:43:58.356Z,7.67
2018-05-18T02:46:25.939Z,6.80
2018-05-18T02:48:53.515Z,7.40
2018-05-18T02:51:21.107Z,7.60
2018-05-18T02:53:48.701Z,7.73
2018-05-18T02:56:16.274Z,7.83
2018-05-18T02:58:43.818Z,7.90
2018-05-18T03:01:11.421Z,7.43
2018-05-18T03:03:38.979Z,7.33
2018-05-18T03:06:06.540Z,7.57
2018-05-18T03:08:34.180Z,6.83
2018-05-18T03:11:02.497Z,6.83
2018-05-18T03:13:30.075Z,6.73
2018-05-18T03:15:57.669Z,8.83
2018-05-18T03:18:25.228Z,8.07
2018-05-18T03:20:53.598Z,7.47
2018-05-18T03:23:21.178Z,7.57
2018-05-18T03:25:49.521Z,7.30
2018-05-18T03:28:17.082Z,7.93
2018-05-18T03:30:44.679Z,11.00
2018-05-18T03:33:13.006Z,8.40
2018-05-18T03:35:40.573Z,8.87
2018-05-18T03:38:08.163Z,8.00
2018-05-18T03:40:35.744Z,8.33
2018-05-18T03:43:04.068Z,8.73
2018-05-18T03:45:31.870Z,8.77
2018-05-18T03:47:59.434Z,8.43
2018-05-18T03:50:26.985Z,8.10
2018-05-18T03:52:54.589Z,8.23
2018-05-18T03:55:22.151Z,11.30
2018-05-18T03:57:49.726Z,9.23
2018-05-18T04:00:17.322Z,12.20
2018-05-18T04:03:21.864Z,8.60
2018-05-18T04:06:26.620Z,11.97
2018-05-18T04:08:54.966Z,11.85
2018-05-18T04:11:22.530Z,12.57
2018-05-18T04:13:50.124Z,8.97
2018-05-18T04:16:18.476Z,8.40
2018-05-18T04:18:46.062Z,8.10
2018-05-18T04:21:13.623Z,11.02
2018-05-18T04:23:41.944Z,9.03
2018-05-18T04:26:09.520Z,8.90
2018-05-18T04:28:37.123Z,7.93
2018-05-18T04:31:04.682Z,7.80
2018-05-18T04:33:32.240Z,7.97
2018-05-18T04:35:59.829Z,8.47
2018-05-18T04:38:27.390Z,8.67
2018-05-18T04:40:54.936Z,9.75
2018-05-18T04:43:23.399Z,8.40
2018-05-18T04:45:50.859Z,7.40
2018-05-18T04:48:18.428Z,8.73
2018-05-18T04:50:46.042Z,8.10
2018-05-18T04:53:13.601Z,7.97
2018-05-18T04:55:41.196Z,8.07
2018-05-18T04:58:08.788Z,7.67
2018-05-18T05:00:37.110Z,7.73
2018-05-18T05:03:04.671Z,7.20
2018-05-18T05:05:32.369Z,7.63
2018-05-18T05:07:59.815Z,7.17
2018-05-18T05:10:27.372Z,7.30
2018-05-18T05:12:54.972Z,8.60
2018-05-18T05:15:23.297Z,7.87
2018-05-18T05:17:50.975Z,7.10
2018-05-18T05:20:18.451Z,6.97
2018-05-18T05:22:46.012Z,6.40
2018-05-18T05:25:13.572Z,6.70
2018-05-18T05:27:41.173Z,7.83
2018-05-18T05:30:08.728Z,6.57
2018-05-18T05:32:36.390Z,7.10
2018-05-18T05:35:03.970Z,6.40
2018-05-18T05:37:31.525Z,6.10
2018-05-18T05:39:59.083Z,7.17
2018-05-18T05:42:27.071Z,6.23
2018-05-18T05:44:54.750Z,5.77
2018-05-18T05:47:22.392Z,6.27
2018-05-18T05:49:50.002Z,6.60
2018-05-18T05:52:17.567Z,5.60
2018-05-18T05:54:45.129Z,5.97
2018-05-18T05:57:12.758Z,6.00
2018-05-18T05:59:40.323Z,7.33
2018-05-18T06:02:07.887Z,8.07
2018-05-18T06:04:35.482Z,7.00
2018-05-18T06:07:03.807Z,6.37
2018-05-18T06:09:31.361Z,6.53
2018-05-18T06:11:58.968Z,6.03
2018-05-18T06:14:26.528Z,6.70
2018-05-18T06:16:54.095Z,6.50
2018-05-18T06:19:22.953Z,7.23
2018-05-18T06:21:50.532Z,8.15
2018-05-18T06:24:18.089Z,7.10
2018-05-18T06:26:45.772Z,7.23
2018-05-18T06:29:13.339Z,7.80
2018-05-18T06:31:40.884Z,7.30
2018-05-18T06:34:08.504Z,6.90
2018-05-18T06:36:36.057Z,6.83
2018-05-18T06:39:03.625Z,6.80
2018-05-18T06:41:31.603Z,6.23
2018-05-18T06:43:59.152Z,6.83
2018-05-18T06:46:26.712Z,7.00
2018-05-18T06:48:54.373Z,6.53
2018-05-18T06:51:21.933Z,6.60
2018-05-18T06:53:49.494Z,7.17
2018-05-18T06:56:17.595Z,6.87
2018-05-18T06:58:45.227Z,6.93
2018-05-18T07:01:12.749Z,7.10
2018-05-18T07:03:41.142Z,8.05
2018-05-18T07:06:09.477Z,7.00
2018-05-18T07:08:39.227Z,7.60
2018-05-18T07:11:06.832Z,7.30
2018-05-18T07:13:34.398Z,7.30
2018-05-18T07:16:01.948Z,7.50
2018-05-18T07:18:29.596Z,8.13
2018-05-18T07:20:57.956Z,6.60
2018-05-18T07:23:25.516Z,7.30
2018-05-18T07:25:54.194Z,7.30
2018-05-18T07:28:21.756Z,6.77
2018-05-18T07:30:49.317Z,7.93
2018-05-18T07:33:16.934Z,8.30
2018-05-18T07:35:44.517Z,7.10
2018-05-18T07:38:12.082Z,6.40
2018-05-18T07:40:39.677Z,6.67
2018-05-18T07:43:07.997Z,7.10
2018-05-18T07:45:51.484Z,7.07
2018-05-18T07:48:19.003Z,6.13
2018-05-18T07:50:46.571Z,7.20
2018-05-18T07:53:14.219Z,6.97
2018-05-18T07:55:41.785Z,6.63
2018-05-18T07:58:09.356Z,6.70
2018-05-18T08:00:37.520Z,6.67
2018-05-18T08:03:05.090Z,6.27
2018-05-18T08:05:32.653Z,6.50
2018-05-18T08:08:00.271Z,6.30
2018-05-18T08:10:27.831Z,7.00
2018-05-18T08:12:55.404Z,5.90
2018-05-18T08:15:23.008Z,6.63
2018-05-18T08:17:50.578Z,6.53
2018-05-18T08:20:18.150Z,8.18
2018-05-18T08:22:46.110Z,6.37
2018-05-18T08:25:13.675Z,6.97
2018-05-18T08:27:41.374Z,6.30
2018-05-18T08:30:08.843Z,6.40
2018-05-18T08:32:36.415Z,6.10
2018-05-18T08:35:03.983Z,6.70
2018-05-18T08:37:32.176Z,6.10
2018-05-18T08:39:59.754Z,5.83
2018-05-18T08:42:27.326Z,6.17
2018-05-18T08:44:54.971Z,6.57
2018-05-18T08:47:22.537Z,5.90
2018-05-18T08:49:50.097Z,6.17
2018-05-18T08:52:17.714Z,6.30
2018-05-18T08:54:45.278Z,5.93
2018-05-18T08:57:12.837Z,5.40
2018-05-18T08:59:40.491Z,5.77
2018-05-18T09:02:08.044Z,6.00
2018-05-18T09:04:36.379Z,6.23
2018-05-18T09:07:04.136Z,5.00
2018-05-18T09:09:31.671Z,5.93
2018-05-18T09:12:00.225Z,5.10
2018-05-18T09:14:27.824Z,5.20
2018-05-18T09:16:55.378Z,5.50
2018-05-18T09:19:22.938Z,4.77
2018-05-18T09:21:50.605Z,4.77
2018-05-18T09:24:18.170Z,4.90
2018-05-18T09:26:45.719Z,4.60
2018-05-18T09:29:13.334Z,5.13
2018-05-18T09:31:40.891Z,4.23
2018-05-18T09:34:08.469Z,4.97
2018-05-18T09:36:36.073Z,5.57
2018-05-18T09:39:03.643Z,5.00
2018-05-18T09:41:31.207Z,4.80
2018-05-18T09:43:59.500Z,4.40
2018-05-18T09:46:27.076Z,4.70
2018-05-18T09:48:54.615Z,5.07
2018-05-18T09:51:22.674Z,3.73
2018-05-18T09:53:50.240Z,3.60
2018-05-18T09:56:17.803Z,4.17
2018-05-18T09:58:46.408Z,4.00
2018-05-18T10:01:13.982Z,4.30
2018-05-18T10:03:41.547Z,4.50
2018-05-18T10:06:09.198Z,4.57
2018-05-18T10:08:36.758Z,3.97
2018-05-18T10:11:04.331Z,3.50
2018-05-18T10:13:31.959Z,4.15
2018-05-18T10:15:59.504Z,4.68
2018-05-18T10:18:27.147Z,3.17
2018-05-18T10:20:54.728Z,3.40
2018-05-18T10:23:22.622Z,3.70
2018-05-18T10:25:50.181Z,3.30
2018-05-18T10:28:17.777Z,3.40
2018-05-18T10:30:45.374Z,2.83
2018-05-18T10:33:12.940Z,3.07
2018-05-18T10:35:40.592Z,3.07
2018-05-18T10:38:08.153Z,2.80
2018-05-18T10:40:35.712Z,3.27
2018-05-18T10:43:03.380Z,3.07
2018-05-18T10:45:30.946Z,3.30
2018-05-18T10:47:58.507Z,2.90
2018-05-18T10:50:26.109Z,2.80
2018-05-18T10:52:53.666Z,2.70
2018-05-18T10:55:21.295Z,2.50
2018-05-18T10:57:48.912Z,2.50
2018-05-18T11:00:16.467Z,2.80
2018-05-18T11:02:44.033Z,2.70
2018-05-18T11:05:11.702Z,2.63
2018-05-18T11:07:39.238Z,2.72
2018-05-18T11:10:06.806Z,2.37
2018-05-18T11:12:35.415Z,2.00
2018-05-18T11:15:02.993Z,2.72
2018-05-18T11:17:31.299Z,2.27
2018-05-18T11:19:59.015Z,2.33
2018-05-18T11:22:26.531Z,2.60
2018-05-18T11:24:54.082Z,2.80
2018-05-18T11:27:21.692Z,2.90
2018-05-18T11:29:49.268Z,2.70
2018-05-18T11:32:16.849Z,2.40
2018-05-18T11:34:46.197Z,2.67
2018-05-18T11:37:13.766Z,2.20
2018-05-18T11:39:41.316Z,2.43
2018-05-18T11:42:08.955Z,2.70
2018-05-18T11:44:36.509Z,2.70
2018-05-18T11:47:04.069Z,2.60
2018-05-18T11:49:31.681Z,2.33
2018-05-18T11:51:59.250Z,2.30
2018-05-18T11:54:26.801Z,2.50
2018-05-18T11:56:54.439Z,3.03
2018-05-18T11:59:22.011Z,2.17
2018-05-18T12:01:49.573Z,2.70
2018-05-18T12:04:17.755Z,3.03
2018-05-18T12:06:45.316Z,1.73
2018-05-18T12:09:12.880Z,2.17
2018-05-18T12:11:40.485Z,2.23
2018-05-18T12:14:08.831Z,2.83
2018-05-18T12:16:36.403Z,2.63
2018-05-18T12:19:04.040Z,2.30
2018-05-18T12:21:31.601Z,2.03
2018-05-18T12:23:59.161Z,2.30
2018-05-18T12:26:26.773Z,2.00
2018-05-18T12:28:55.097Z,2.10
2018-05-18T12:31:22.659Z,2.27
2018-05-18T12:33:50.309Z,2.30
2018-05-18T12:36:17.870Z,2.23
2018-05-18T12:38:45.439Z,2.70
2018-05-18T12:41:13.035Z,2.30
2018-05-18T12:43:40.979Z,2.40
2018-05-18T12:46:08.845Z,2.57
2018-05-18T12:48:36.824Z,2.00
2018-05-18T12:51:04.387Z,2.07
2018-05-18T12:53:31.942Z,2.43
2018-05-18T12:56:00.348Z,1.90
2018-05-18T12:58:27.912Z,2.20
2018-05-18T13:00:55.467Z,2.17
2018-05-18T13:03:23.068Z,2.20
2018-05-18T13:05:50.616Z,2.50
2018-05-18T13:08:21.021Z,2.50
2018-05-18T13:10:48.643Z,2.57
2018-05-18T13:13:16.197Z,2.20
2018-05-18T13:15:43.751Z,2.30
2018-05-18T13:18:11.383Z,2.03
2018-05-18T13:20:39.705Z,2.13
2018-05-18T13:23:07.257Z,1.70
2018-05-18T13:25:34.884Z,1.87
2018-05-18T13:28:03.244Z,2.10
2018-05-18T13:30:30.878Z,1.63
2018-05-18T13:32:58.425Z,1.80
2018-05-18T13:35:26.011Z,1.90
2018-05-18T13:37:53.566Z,1.83
2018-05-18T13:40:21.641Z,1.73
2018-05-18T13:42:49.189Z,1.67
2018-05-18T13:45:16.746Z,2.20
2018-05-18T13:47:44.350Z,1.80
2018-05-18T13:50:11.935Z,1.57
2018-05-18T13:52:40.257Z,2.17
2018-05-18T13:55:07.889Z,2.30
2018-05-18T13:57:35.444Z,2.23
2018-05-18T14:00:03.001Z,1.70
2018-05-18T14:02:31.410Z,1.90
2018-05-18T14:04:58.966Z,2.00
2018-05-18T14:07:26.516Z,2.20
2018-05-18T14:09:54.157Z,1.80
2018-05-18T14:12:22.482Z,2.00
2018-05-18T14:14:50.036Z,2.10
2018-05-18T14:17:17.679Z,1.77
2018-05-18T14:19:45.251Z,1.70
2018-05-18T14:22:12.810Z,1.90
2018-05-18T14:24:40.422Z,1.90
2018-05-18T14:27:07.988Z,1.73
2018-05-18T14:29:35.553Z,2.00
2018-05-18T14:32:03.192Z,1.70
2018-05-18T14:34:30.747Z,1.80
2018-05-18T14:36:58.305Z,2.50
2018-05-18T14:39:26.837Z,2.60
2018-05-18T14:41:55.166Z,2.00
2018-05-18T14:44:22.730Z,1.80
2018-05-18T14:46:50.331Z,1.80
2018-05-18T14:49:18.652Z,1.97
2018-05-18T14:51:46.213Z,2.10
2018-05-18T14:54:13.819Z,1.83
2018-05-18T14:56:42.720Z,2.10
2018-05-18T14:59:10.272Z,2.13
2018-05-18T15:01:37.897Z,2.43
2018-05-18T15:04:05.457Z,1.90
2018-05-18T15:06:33.013Z,1.80
2018-05-18T15:09:00.999Z,2.00
2018-05-18T15:11:28.557Z,2.00
2018-05-18T15:13:56.105Z,2.43
2018-05-18T15:16:23.755Z,2.00
2018-05-18T15:18:51.267Z,2.30
2018-05-18T15:21:18.821Z,1.90
2018-05-18T15:23:46.454Z,2.20
2018-05-18T15:26:16.232Z,1.77
2018-05-18T15:28:43.871Z,1.83
2018-05-18T15:31:12.638Z,2.30
2018-05-18T15:33:40.206Z,2.20
2018-05-18T15:36:07.749Z,2.00
2018-05-18T15:38:35.349Z,2.17
2018-05-18T15:41:02.906Z,2.43
2018-05-18T15:43:30.468Z,2.40
2018-05-18T15:45:58.068Z,2.30
2018-05-18T15:48:25.842Z,2.30
2018-05-18T15:50:53.418Z,1.90
2018-05-18T15:53:21.026Z,2.20
2018-05-18T15:55:48.578Z,2.00
2018-05-18T15:58:16.135Z,2.20
2018-05-18T16:00:43.748Z,2.62
2018-05-18T16:03:11.292Z,2.37
2018-05-18T16:05:39.613Z,2.93
2018-05-18T16:08:07.690Z,2.00
2018-05-18T16:10:35.253Z,2.40
2018-05-18T16:13:02.812Z,2.67
2018-05-18T16:15:30.419Z,2.30
2018-05-18T16:17:58.752Z,2.43
2018-05-18T16:20:26.323Z,2.10
2018-05-18T16:22:53.974Z,3.17
2018-05-18T16:25:21.584Z,2.60
2018-05-18T16:27:49.162Z,2.33
2018-05-18T16:30:16.741Z,2.17
2018-05-18T16:32:44.298Z,2.87
2018-05-18T16:35:11.868Z,2.33
2018-05-18T16:37:40.273Z,2.40
2018-05-18T16:40:07.863Z,2.60
2018-05-18T16:42:35.398Z,2.78
2018-05-18T16:45:03.024Z,2.90
2018-05-18T16:47:30.586Z,3.17
2018-05-18T16:49:58.142Z,3.17
2018-05-18T16:52:26.658Z,3.50
2018-05-18T16:54:54.214Z,3.03
2018-05-18T16:57:21.781Z,3.17
2018-05-18T16:59:50.279Z,3.10
2018-05-18T17:02:17.837Z,2.80
2018-05-18T17:04:45.386Z,3.13
2018-05-18T17:07:13.447Z,3.47
2018-05-18T17:09:40.964Z,2.93
2018-05-18T17:12:09.290Z,3.20
2018-05-18T17:14:37.660Z,3.00
2018-05-18T17:17:05.235Z,3.10
2018-05-18T17:19:32.796Z,3.20
2018-05-18T17:22:01.997Z,2.60
2018-05-18T17:24:29.543Z,3.03
2018-05-18T17:26:57.406Z,4.40
2018-05-18T17:29:25.760Z,3.77
2018-05-18T17:31:53.356Z,3.80
2018-05-18T17:34:20.913Z,3.63
2018-05-18T17:36:48.512Z,4.00
2018-05-18T17:39:16.072Z,4.03
2018-05-18T17:41:43.630Z,3.07
2018-05-18T17:44:11.234Z,3.70
2018-05-18T17:46:38.793Z,3.37
2018-05-18T17:49:06.355Z,3.40
2018-05-18T17:51:33.970Z,3.50
2018-05-18T17:54:01.528Z,4.00
2018-05-18T17:56:29.091Z,4.70
2018-05-18T17:58:56.706Z,3.70
2018-05-18T18:01:24.275Z,4.07
2018-05-18T18:03:51.838Z,4.63
2018-05-18T18:06:19.489Z,4.67
2018-05-18T18:08:47.057Z,4.97
2018-05-18T18:11:14.641Z,4.07
2018-05-18T18:13:42.221Z,4.23
2018-05-18T18:16:09.780Z,4.30
2018-05-18T18:18:37.339Z,4.37
2018-05-18T18:21:04.971Z,4.27
2018-05-18T18:23:32.570Z,5.90
2018-05-18T18:26:00.093Z,5.50
2018-05-18T18:30:56.065Z,3.93
2018-05-18T18:33:23.614Z,4.80
2018-05-18T18:35:52.107Z,4.10
2018-05-18T18:38:19.675Z,4.70
2018-05-18T18:40:47.295Z,4.53
2018-05-18T18:43:14.853Z,3.90
2018-05-18T18:45:42.423Z,4.63
2018-05-18T18:48:10.031Z,4.17
2018-05-18T18:50:37.658Z,4.83
2018-05-18T18:53:05.213Z,5.65
2018-05-18T18:55:32.905Z,5.67
2018-05-18T18:58:00.551Z,4.93
2018-05-18T19:00:28.135Z,5.27
2018-05-18T19:02:55.717Z,4.87
2018-05-18T19:05:24.437Z,5.72
2018-05-18T19:07:52.057Z,5.43
2018-05-18T19:10:19.550Z,5.20
2018-05-18T19:12:47.601Z,5.47
2018-05-18T19:15:15.225Z,5.57
2018-05-18T19:17:42.729Z,5.00
2018-05-18T19:20:11.109Z,5.17
2018-05-18T19:22:39.436Z,5.00
2018-05-18T19:25:07.004Z,5.03
2018-05-18T19:27:34.622Z,5.20
2018-05-18T19:30:02.971Z,5.13
2018-05-18T19:32:30.527Z,5.20
2018-05-18T19:34:58.593Z,5.17
2018-05-18T19:37:26.142Z,4.50
2018-05-18T19:39:53.703Z,5.10
2018-05-18T19:42:21.316Z,5.40
2018-05-18T19:44:48.877Z,5.67
2018-05-18T19:47:17.219Z,4.90
2018-05-18T19:49:45.892Z,5.33
2018-05-18T19:52:13.456Z,5.53
2018-05-18T19:54:41.035Z,5.30
2018-05-18T19:57:09.402Z,5.87
2018-05-18T19:59:36.953Z,5.57
2018-05-18T20:02:04.512Z,5.77
2018-05-18T20:04:32.122Z,6.03
2018-05-18T20:06:59.725Z,6.30
2018-05-18T20:09:27.276Z,6.20
2018-05-18T20:11:54.886Z,6.03
2018-05-18T20:14:22.466Z,6.17
2018-05-18T20:16:50.790Z,6.53
2018-05-18T20:19:18.390Z,5.73
2018-05-18T20:21:45.947Z,6.27
2018-05-18T20:24:13.516Z,5.77
2018-05-18T20:26:41.126Z,5.90
2018-05-18T20:29:08.714Z,5.87
2018-05-18T20:31:36.242Z,5.23
2018-05-18T20:34:03.836Z,5.97
2018-05-18T20:36:31.400Z,5.47
2018-05-18T20:38:58.957Z,5.70
2018-05-18T20:41:26.605Z,6.27
2018-05-18T20:43:54.169Z,6.67
2018-05-18T20:46:21.728Z,6.33
2018-05-18T20:48:49.336Z,5.90
2018-05-18T20:51:16.894Z,6.23
2018-05-18T20:53:44.463Z,6.40
2018-05-18T20:56:12.870Z,6.67
2018-05-18T20:58:40.444Z,5.87
2018-05-18T21:01:08.007Z,6.40
2018-05-18T21:03:35.637Z,5.70
2018-05-18T21:06:03.192Z,6.10
2018-05-18T21:08:31.518Z,6.97
2018-05-18T21:10:59.147Z,6.83
2018-05-18T21:13:26.705Z,6.43
2018-05-18T21:15:54.296Z,6.77
2018-05-18T21:18:22.011Z,6.30
2018-05-18T21:20:50.252Z,5.90
2018-05-18T21:23:17.815Z,6.47
2018-05-18T21:25:45.437Z,7.20
2018-05-18T21:28:12.995Z,6.70
2018-05-18T21:30:40.551Z,6.90
2018-05-18T21:33:08.150Z,7.23
2018-05-18T21:35:35.715Z,6.97
2018-05-18T21:38:03.272Z,6.90
2018-05-18T21:40:30.873Z,6.80
2018-05-18T21:42:58.430Z,6.93
2018-05-18T21:45:25.995Z,8.50
2018-05-18T21:47:53.650Z,8.63
2018-05-18T21:50:21.250Z,8.00
2018-05-18T21:52:48.810Z,7.30
2018-05-18T21:55:16.433Z,7.27
2018-05-18T21:57:43.986Z,8.17
2018-05-18T22:00:11.552Z,7.97
2018-05-18T22:02:39.156Z,10.27
2018-05-18T22:05:06.721Z,8.13
2018-05-18T22:07:34.287Z,6.47
2018-05-18T22:10:01.895Z,6.57
2018-05-18T22:12:29.457Z,7.30
2018-05-18T22:14:59.070Z,7.13
2018-05-18T22:17:26.667Z,8.00
2018-05-18T22:19:55.011Z,7.70
2018-05-18T22:22:22.579Z,6.97
2018-05-18T22:24:50.200Z,7.70
2018-05-18T22:27:17.758Z,7.27
2018-05-18T22:29:45.317Z,7.03
2018-05-18T22:32:12.908Z,6.97
2018-05-18T22:34:40.473Z,6.90
2018-05-18T22:37:08.275Z,6.93
2018-05-18T22:39:36.634Z,7.60
2018-05-18T22:42:04.207Z,7.07
2018-05-18T22:44:31.765Z,8.35
2018-05-18T22:46:59.386Z,7.30
2018-05-18T22:49:26.946Z,8.25
2018-05-18T22:51:54.507Z,7.77
2018-05-18T22:54:22.142Z,7.13
2018-05-18T22:56:49.664Z,7.33
2018-05-18T22:59:17.238Z,7.03
2018-05-18T23:01:44.832Z,8.48
2018-05-18T23:04:12.389Z,7.67
2018-05-18T23:06:53.539Z,7.50
2018-05-18T23:09:21.093Z,7.60
2018-05-18T23:11:48.653Z,7.50
2018-05-18T23:14:16.244Z,7.87
2018-05-18T23:16:43.827Z,7.30
2018-05-18T23:19:11.389Z,7.00
2018-05-18T23:21:38.983Z,8.57
2018-05-18T23:24:06.538Z,13.93
2018-05-18T23:26:34.095Z,13.43
2018-05-18T23:29:01.733Z,10.00
2018-05-18T23:31:29.290Z,8.20
2018-05-18T23:33:56.851Z,7.30
2018-05-18T23:36:24.452Z,7.20
2018-05-18T23:38:52.008Z,8.50
2018-05-18T23:41:19.586Z,8.88
2018-05-18T23:43:47.175Z,8.03
2018-05-18T23:46:15.507Z,8.70
2018-05-18T23:48:43.108Z,8.10
2018-05-18T23:51:10.690Z,7.27
2018-05-18T23:53:38.262Z,6.73
2018-05-18T23:56:05.821Z,6.90
2018-05-18T23:58:33.418Z,7.63
